Time;durP1;ratioP1;P1;durP2;ratioP2;P2;SDS_P1;SDS_P2;PMS_P1;PMS_P2;Temp;Humidity;BMP_temperature;BMP_pressure;BME280_temperature;BME280_humidity;BME280_pressure;Samples;Min_cycle;Max_cycle;Signal;HPM_P1;HPM_P2
2022/04/26 03:37:12;;;;;;;9.05;5.70;;;;;;;6.91;100.00;101510.88;5258978;28;20037;-73
2022/04/26 03:39:44;;;;;;;9.30;5.50;;;;;;;6.92;100.00;101510.75;5341223;27;20847;-73
2022/04/26 03:42:16;;;;;;;7.55;5.55;;;;;;;6.94;100.00;101508.00;5350895;27;20557;-73
2022/04/26 03:44:47;;;;;;;9.32;5.82;;;;;;;6.92;100.00;101513.41;5357436;27;20030;-73
2022/04/26 03:47:18;;;;;;;7.78;5.47;;;;;;;6.92;100.00;101513.41;5348459;27;20028;-73
2022/04/26 03:49:50;;;;;;;7.05;5.60;;;;;;;7.00;100.00;101518.22;5361886;27;20035;-73
2022/04/26 03:52:21;;;;;;;8.40;6.05;;;;;;;6.90;100.00;101522.44;5352362;27;20015;-73
2022/04/26 03:54:52;;;;;;;8.20;6.47;;;;;;;6.87;100.00;101528.78;5345285;27;20020;-73
2022/04/26 03:57:24;;;;;;;9.55;6.82;;;;;;;6.81;100.00;101527.38;5356847;27;20055;-73
2022/04/26 03:59:55;;;;;;;8.27;6.28;;;;;;;6.76;100.00;101518.88;5359363;27;20031;-73
2022/04/26 04:02:26;;;;;;;8.70;5.65;;;;;;;6.74;100.00;101518.13;5356994;27;20026;-72
2022/04/26 04:04:57;;;;;;;7.93;5.97;;;;;;;6.74;100.00;101526.09;5356453;27;20490;-73
2022/04/26 04:07:29;;;;;;;9.55;6.05;;;;;;;6.73;100.00;101526.19;5353677;27;20035;-73
2022/04/26 04:10:00;;;;;;;6.95;5.60;;;;;;;6.72;100.00;101533.28;5358040;27;20023;-73
2022/04/26 04:12:31;;;;;;;7.82;6.10;;;;;;;6.70;100.00;101535.22;5354288;27;20039;-73
2022/04/26 04:15:03;;;;;;;10.35;6.57;;;;;;;6.68;100.00;101538.88;5351404;27;20039;-73
2022/04/26 04:17:35;;;;;;;8.88;6.32;;;;;;;6.71;100.00;101541.34;5353433;27;20023;-73
2022/04/26 04:20:07;;;;;;;9.00;6.80;;;;;;;6.72;100.00;101541.25;5351455;27;20051;-73
2022/04/26 04:22:39;;;;;;;10.88;6.72;;;;;;;6.75;100.00;101540.19;5351117;27;20484;-73
2022/04/26 04:25:10;;;;;;;12.18;6.22;;;;;;;6.88;100.00;101546.41;5348922;27;20069;-73
2022/04/26 04:27:42;;;;;;;12.13;7.78;;;;;;;6.87;100.00;101547.34;5345308;27;20023;-73
2022/04/26 04:30:13;;;;;;;8.00;6.35;;;;;;;6.97;100.00;101551.09;5356821;27;20448;-74
2022/04/26 04:32:45;;;;;;;9.07;6.38;;;;;;;6.97;100.00;101553.72;5354672;27;20054;-74
2022/04/26 04:35:16;;;;;;;10.45;6.85;;;;;;;7.01;100.00;101546.41;5355102;27;20031;-75
2022/04/26 04:37:49;;;;;;;6.72;6.00;;;;;;;7.09;100.00;101554.72;5343029;27;20019;-73
2022/04/26 04:40:20;;;;;;;8.57;6.78;;;;;;;7.06;100.00;101564.69;5346337;27;20455;-73
2022/04/26 04:42:51;;;;;;;9.05;6.75;;;;;;;7.03;100.00;101565.75;5355130;27;20031;-73
2022/04/26 04:45:23;;;;;;;8.15;7.35;;;;;;;7.03;100.00;101571.06;5355407;27;20031;-72
2022/04/26 04:47:54;;;;;;;10.15;7.03;;;;;;;6.99;100.00;101573.06;5350084;27;110624;-73
2022/04/26 04:50:25;;;;;;;8.38;6.57;;;;;;;6.98;100.00;101575.81;5360339;27;25466;-73
2022/04/26 04:52:56;;;;;;;10.85;6.82;;;;;;;6.93;100.00;101578.78;5359745;27;20019;-73
2022/04/26 04:55:28;;;;;;;8.05;6.93;;;;;;;6.93;100.00;101581.41;5354842;27;20115;-73
2022/04/26 04:57:59;;;;;;;9.77;7.32;;;;;;;6.98;100.00;101589.09;5355532;27;20035;-73
2022/04/26 05:00:30;;;;;;;9.80;7.25;;;;;;;6.93;100.00;101586.72;5361476;27;20179;-73
2022/04/26 05:03:02;;;;;;;10.73;6.53;;;;;;;6.96;100.00;101593.63;5353717;27;20130;-74
2022/04/26 05:05:33;;;;;;;11.07;7.13;;;;;;;6.93;100.00;101592.03;5349547;27;20057;-74
2022/04/26 05:08:08;;;;;;;10.15;6.60;;;;;;;6.99;100.00;101589.00;5350798;27;20026;-74
2022/04/26 05:10:40;;;;;;;11.48;7.10;;;;;;;6.98;100.00;101600.53;5356115;27;20080;-74
2022/04/26 05:13:12;;;;;;;11.40;7.15;;;;;;;7.02;100.00;101610.97;5350981;27;20031;-74
2022/04/26 05:15:44;;;;;;;9.00;7.45;;;;;;;7.00;100.00;101611.06;5350001;27;20040;-73
2022/04/26 05:18:16;;;;;;;11.50;6.72;;;;;;;6.98;100.00;101618.25;5348356;27;20019;-74
2022/04/26 05:20:47;;;;;;;9.23;7.35;;;;;;;7.00;100.00;101617.19;5348878;27;20030;-73
2022/04/26 05:26:08;;;;;;;13.77;7.30;;;;;;;7.04;100.00;101611.69;5357245;27;20039;-73
2022/04/26 05:28:39;;;;;;;13.00;7.43;;;;;;;7.09;100.00;101617.56;5353714;27;20457;-73
2022/04/26 05:31:11;;;;;;;9.23;6.35;;;;;;;7.14;100.00;101620.75;5366399;27;20019;-73
2022/04/26 05:33:42;;;;;;;13.63;7.47;;;;;;;7.16;100.00;101621.50;5348830;27;20114;-74
2022/04/26 05:36:14;;;;;;;10.80;7.07;;;;;;;7.21;100.00;101621.22;5357845;27;20020;-73
2022/04/26 05:38:45;;;;;;;10.90;7.55;;;;;;;7.29;100.00;101622.41;5357854;27;20102;-74
2022/04/26 05:41:16;;;;;;;8.65;7.07;;;;;;;7.38;100.00;101626.22;5354106;27;20101;-73
2022/04/26 05:43:47;;;;;;;10.30;7.30;;;;;;;7.42;100.00;101622.44;5352505;27;20020;-73
2022/04/26 05:46:19;;;;;;;8.48;7.13;;;;;;;7.47;100.00;101624.75;5350710;27;24407;-73
2022/04/26 05:48:50;;;;;;;12.55;7.60;;;;;;;7.58;100.00;101622.25;5354526;27;20031;-73
2022/04/26 05:51:22;;;;;;;8.38;7.47;;;;;;;7.63;100.00;101622.78;5356404;27;20031;-74
2022/04/26 05:53:53;;;;;;;10.05;7.15;;;;;;;7.72;100.00;101631.94;5355062;27;20023;-73
2022/04/26 05:56:24;;;;;;;10.73;7.05;;;;;;;7.79;100.00;101624.41;5354519;27;20472;-73
2022/04/26 05:58:56;;;;;;;10.85;7.80;;;;;;;7.88;100.00;101632.56;5357334;27;20043;-74
2022/04/26 06:01:27;;;;;;;10.05;6.82;;;;;;;7.96;100.00;101632.06;5350334;27;20034;-74
2022/04/26 06:03:58;;;;;;;13.35;6.80;;;;;;;8.07;100.00;101626.84;5351942;27;20052;-74
2022/04/26 06:06:30;;;;;;;11.02;7.25;;;;;;;8.21;100.00;101635.66;5356424;27;20103;-74
2022/04/26 06:09:02;;;;;;;7.68;6.88;;;;;;;8.30;100.00;101637.66;5346545;27;20008;-74
2022/04/26 06:11:36;;;;;;;12.23;7.45;;;;;;;8.41;100.00;101635.09;5346008;27;20349;-74
2022/04/26 06:14:08;;;;;;;11.30;7.30;;;;;;;8.41;100.00;101643.06;5346755;27;20034;-74
2022/04/26 06:16:39;;;;;;;10.73;7.32;;;;;;;8.62;100.00;101640.72;5345987;27;20028;-74
2022/04/26 06:19:10;;;;;;;7.68;6.95;;;;;;;8.70;100.00;101646.34;5361738;27;20073;-74
2022/04/26 06:21:42;;;;;;;12.80;7.43;;;;;;;8.79;100.00;101654.63;5366397;27;20027;-74
2022/04/26 06:24:14;;;;;;;11.80;7.53;;;;;;;8.92;100.00;101649.25;5366984;27;20062;-74
2022/04/26 06:26:45;;;;;;;10.88;7.03;;;;;;;9.03;100.00;101650.16;5362796;27;20538;-74
2022/04/26 06:29:16;;;;;;;9.32;6.70;;;;;;;9.13;100.00;101658.31;5345895;27;20319;-74
2022/04/26 06:31:48;;;;;;;9.85;6.97;;;;;;;9.30;100.00;101658.88;5366977;27;20028;-74
2022/04/26 06:34:19;;;;;;;12.02;7.38;;;;;;;9.36;100.00;101663.75;5367203;27;20438;-74
2022/04/26 06:36:50;;;;;;;10.52;7.25;;;;;;;9.45;100.00;101661.25;5367680;27;20061;-74
2022/04/26 06:39:22;;;;;;;10.00;6.82;;;;;;;9.51;100.00;101667.94;5365794;27;20018;-74
2022/04/26 06:41:53;;;;;;;11.77;7.50;;;;;;;9.49;100.00;101666.34;5345776;27;20027;-74
2022/04/26 06:44:25;;;;;;;10.02;7.22;;;;;;;9.50;100.00;101670.69;5348202;27;20083;-74
2022/04/26 06:46:56;;;;;;;13.75;8.02;;;;;;;9.55;100.00;101671.22;5367282;27;20343;-74
2022/04/26 06:49:27;;;;;;;10.20;7.15;;;;;;;9.74;100.00;101671.50;5366792;27;20043;-75
2022/04/26 06:51:59;;;;;;;10.38;7.80;;;;;;;9.80;100.00;101670.19;5367441;27;20031;-75
2022/04/26 06:54:30;;;;;;;10.88;7.93;;;;;;;9.88;100.00;101685.59;5366172;27;20023;-75
2022/04/26 06:57:01;;;;;;;12.98;7.78;;;;;;;9.92;100.00;101679.06;5366930;27;20035;-74
2022/04/26 06:59:32;;;;;;;13.98;7.90;;;;;;;10.02;100.00;101664.91;5366960;27;20027;-74
2022/04/26 07:02:04;;;;;;;9.93;7.78;;;;;;;10.28;100.00;101674.53;5367041;27;20030;-75
2022/04/26 07:04:35;;;;;;;11.68;8.10;;;;;;;10.54;100.00;101673.34;5366060;27;41178;-75
2022/04/26 07:07:06;;;;;;;13.48;7.72;;;;;;;10.85;100.00;101675.38;5353179;27;20496;-74
2022/04/26 07:09:38;;;;;;;12.32;7.63;;;;;;;11.34;100.00;101677.56;5344131;27;20061;-75
2022/04/26 07:12:10;;;;;;;11.75;7.28;;;;;;;12.05;100.00;101674.31;5344472;27;20393;-74
2022/04/26 07:14:42;;;;;;;8.98;7.55;;;;;;;12.98;100.00;101674.25;5343762;27;20023;-75
2022/04/26 07:17:13;;;;;;;12.70;7.20;;;;;;;13.56;100.00;101681.53;5345267;27;20027;-74
2022/04/26 07:19:44;;;;;;;8.98;5.90;;;;;;;13.48;100.00;101681.38;5343584;27;20016;-74
2022/04/26 07:22:16;;;;;;;10.90;6.00;;;;;;;13.88;100.00;101680.34;5362066;27;20098;-75
2022/04/26 07:24:47;;;;;;;11.00;6.80;;;;;;;13.51;100.00;101689.13;5365337;27;20019;-74
2022/04/26 07:27:20;;;;;;;9.15;5.78;;;;;;;13.99;100.00;101674.84;5366539;27;20050;-75
2022/04/26 07:29:52;;;;;;;10.02;5.50;;;;;;;14.72;100.00;101676.84;5369057;27;20492;-74
2022/04/26 07:34:20;;;;;;;11.75;6.28;;;;;;;15.17;100.00;101678.72;5370523;27;20473;-75
2022/04/26 07:35:15;;;;;;;12.15;6.38;;;;;;;15.09;100.00;101681.31;5367607;27;20092;-75
2022/04/26 07:37:46;;;;;;;8.15;5.45;;;;;;;14.95;100.00;101696.09;5347724;27;20020;-75
2022/04/26 07:40:18;;;;;;;9.15;5.90;;;;;;;14.83;100.00;101692.78;5347442;27;20786;-74
2022/04/26 07:42:49;;;;;;;9.25;5.93;;;;;;;14.88;100.00;101695.88;5348107;27;20505;-74
2022/04/26 07:45:20;;;;;;;8.90;5.65;;;;;;;14.37;100.00;101699.84;5377041;27;20032;-74
2022/04/26 07:47:52;;;;;;;7.28;5.93;;;;;;;14.33;100.00;101695.78;5370317;27;20027;-75
2022/04/26 07:50:23;;;;;;;10.90;5.32;;;;;;;14.04;100.00;101709.25;5370295;27;20437;-74
2022/04/26 07:52:54;;;;;;;8.73;5.60;;;;;;;13.90;100.00;101702.50;5368438;27;20019;-74
2022/04/26 07:55:27;;;;;;;7.93;6.07;;;;;;;14.11;100.00;101705.88;5365154;27;20068;-74
2022/04/26 07:57:58;;;;;;;9.63;5.80;;;;;;;13.99;100.00;101710.56;5348101;27;20019;-75
2022/04/26 08:00:30;;;;;;;9.52;6.05;;;;;;;14.20;100.00;101712.22;5353889;27;20436;-75
2022/04/26 08:03:02;;;;;;;13.73;6.05;;;;;;;14.26;100.00;101719.66;5368884;27;20035;-76
2022/04/26 08:05:34;;;;;;;9.68;5.47;;;;;;;14.09;100.00;101713.19;5370200;27;20035;-75
2022/04/26 08:08:05;;;;;;;7.93;5.32;;;;;;;13.99;100.00;101710.56;5369831;27;20024;-75
2022/04/26 08:10:37;;;;;;;12.15;6.22;;;;;;;14.00;100.00;101724.81;5369369;27;20085;-74
2022/04/26 08:13:08;;;;;;;10.30;5.82;;;;;;;14.12;100.00;101725.50;5355786;27;20115;-75
2022/04/26 08:15:39;;;;;;;10.25;6.82;;;;;;;14.27;100.00;101731.25;5347819;27;20134;-75
2022/04/26 08:18:11;;;;;;;8.85;6.30;;;;;;;14.06;100.00;101726.06;5348051;27;20023;-75
2022/04/26 08:20:42;;;;;;;10.60;5.63;;;;;;;14.24;100.00;101736.91;5346752;27;20473;-75
2022/04/26 08:23:13;;;;;;;12.93;5.97;;;;;;;14.15;100.00;101738.63;5348041;27;20393;-75
2022/04/26 08:28:35;;;;;;;9.52;4.95;;;;;;;14.62;100.00;101748.53;5357526;27;20036;-75
2022/04/26 08:31:07;;;;;;;9.02;5.18;;;;;;;14.56;100.00;101737.38;5351456;27;20098;-75
2022/04/26 08:33:38;;;;;;;8.90;5.35;;;;;;;15.20;100.00;101744.72;5348103;27;20102;-75
2022/04/26 08:36:12;;;;;;;8.73;5.10;;;;;;;15.87;100.00;101750.66;5348505;27;20024;-75
2022/04/26 08:38:43;;;;;;;6.50;4.90;;;;;;;16.17;100.00;101761.97;5346790;27;20016;-74
2022/04/26 08:41:15;;;;;;;10.18;5.10;;;;;;;16.40;100.00;101754.22;5351262;27;20029;-75
2022/04/26 08:43:46;;;;;;;8.27;4.55;;;;;;;16.17;100.00;101761.97;5369444;27;20106;-75
2022/04/26 08:46:18;;;;;;;8.20;4.50;;;;;;;16.92;100.00;101759.59;5368984;27;20046;-75
2022/04/26 08:51:38;;;;;;;7.00;4.10;;;;;;;17.91;94.75;101762.53;5367353;27;20487;-75
2022/04/26 08:54:11;;;;;;;8.68;4.43;;;;;;;18.26;98.62;101766.72;5367520;27;20099;-75
2022/04/26 08:56:43;;;;;;;6.80;3.97;;;;;;;18.48;97.65;101761.66;5368581;27;20373;-75
2022/04/26 08:59:14;;;;;;;7.43;3.90;;;;;;;19.86;88.94;101766.56;5369134;27;20027;-75
2022/04/26 09:01:45;;;;;;;7.72;4.28;;;;;;;20.57;81.28;101767.09;5364748;27;20058;-75
2022/04/26 09:04:17;;;;;;;7.93;4.70;;;;;;;20.97;58.95;101761.41;5369073;27;20027;-75
2022/04/26 09:06:48;;;;;;;6.82;3.58;;;;;;;20.74;54.28;101762.34;5347528;27;20028;-75
2022/04/26 09:09:24;;;;;;;9.70;4.10;;;;;;;20.28;67.71;101758.91;5346200;27;20020;-75
2022/04/26 09:11:59;;;;;;;10.55;4.22;;;;;;;20.67;58.86;101764.13;5346796;27;20471;-75
2022/04/26 09:14:34;;;;;;;8.82;4.00;;;;;;;21.10;60.72;101760.72;5345253;27;20035;-75
2022/04/26 09:17:12;;;;;;;8.05;3.67;;;;;;;21.52;54.41;101770.81;5352521;27;20558;-75
2022/04/26 09:19:47;;;;;;;8.13;3.60;;;;;;;22.52;47.59;101776.31;5368633;27;20015;-75
2022/04/26 09:22:21;;;;;;;6.30;3.72;;;;;;;24.26;45.26;101771.41;5368696;27;20031;-74
2022/04/26 09:24:59;;;;;;;6.63;3.20;;;;;;;25.50;45.80;101769.56;5367597;27;20443;-75
2022/04/26 09:27:37;;;;;;;7.03;3.10;;;;;;;26.46;42.24;101772.19;5367383;27;20111;-75
2022/04/26 09:30:10;;;;;;;6.65;2.95;;;;;;;26.84;33.96;101780.22;5368352;27;20072;-75
2022/04/26 09:32:49;;;;;;;6.55;2.80;;;;;;;26.94;34.65;101769.56;5355104;27;20024;-75
2022/04/26 09:35:23;;;;;;;7.65;3.17;;;;;;;26.30;38.02;101781.81;5346651;27;20011;-75
2022/04/26 09:37:54;;;;;;;6.03;2.90;;;;;;;25.52;34.50;101778.38;5346809;27;20451;-75
2022/04/26 09:40:31;;;;;;;8.30;2.58;;;;;;;25.07;36.03;101781.94;5344920;27;20038;-75
2022/04/26 09:43:13;;;;;;;4.70;2.70;;;;;;;25.99;34.83;101792.56;5346477;27;20427;-76
2022/04/26 09:45:55;;;;;;;7.05;2.60;;;;;;;25.88;34.39;101800.63;5360793;27;20118;-74
2022/04/26 09:48:28;;;;;;;3.92;2.60;;;;;;;25.37;33.58;101796.94;5345860;27;20051;-75
2022/04/26 09:50:59;;;;;;;4.32;2.60;;;;;;;26.00;34.37;101798.91;5351756;27;20019;-74
2022/04/26 09:53:32;;;;;;;3.42;2.35;;;;;;;26.92;31.88;101801.78;5367548;27;20031;-75
2022/04/26 09:56:05;;;;;;;4.75;2.60;;;;;;;28.01;33.73;101797.41;5357165;27;20095;-75
2022/04/26 09:58:38;;;;;;;4.70;2.60;;;;;;;28.55;32.41;101802.81;5346446;27;20016;-74
2022/04/26 10:01:10;;;;;;;7.20;2.70;;;;;;;28.81;35.11;101799.56;5344997;27;20480;-74
2022/04/26 10:03:45;;;;;;;7.88;3.13;;;;;;;28.09;31.52;101803.38;5346449;27;20028;-74
2022/04/26 10:06:16;;;;;;;6.60;2.85;;;;;;;26.78;30.24;101813.97;5346250;27;20426;-74
2022/04/26 10:08:49;;;;;;;5.15;2.90;;;;;;;25.66;39.39;101806.44;5346679;27;20045;-74
2022/04/26 10:11:21;;;;;;;6.15;2.80;;;;;;;26.82;34.86;101817.09;5345905;27;20023;-74
2022/04/26 10:13:52;;;;;;;5.88;2.70;;;;;;;26.22;31.57;101808.38;5344865;27;20514;-74
2022/04/26 10:16:24;;;;;;;8.48;2.95;;;;;;;25.77;34.04;101813.97;5357482;27;20052;-74
2022/04/26 10:19:10;;;;;;;6.25;2.90;;;;;;;27.35;33.78;101821.97;5368701;27;20019;-74
2022/04/26 10:21:41;;;;;;;5.25;2.72;;;;;;;27.49;31.73;101825.31;5367590;27;20041;-74
2022/04/26 10:24:16;;;;;;;4.68;3.10;;;;;;;26.61;31.94;101819.16;5367796;27;20019;-74
2022/04/26 10:26:48;;;;;;;4.85;2.53;;;;;;;25.94;36.88;101830.66;5364075;27;20035;-74
2022/04/26 10:29:25;;;;;;;6.43;2.92;;;;;;;25.09;38.71;101831.69;5346705;27;20062;-73
2022/04/26 10:31:56;;;;;;;6.20;2.75;;;;;;;24.87;34.06;101836.56;5345724;27;20078;-75
2022/04/26 10:34:33;;;;;;;4.97;2.72;;;;;;;24.55;34.40;101835.59;5345824;27;20026;-74
2022/04/26 10:37:09;;;;;;;6.35;3.47;;;;;;;25.04;34.70;101834.22;5346107;27;20027;-73
2022/04/26 10:39:50;;;;;;;3.22;2.63;;;;;;;25.44;35.98;101825.91;5346150;27;20012;-74
2022/04/26 10:42:22;;;;;;;5.18;3.00;;;;;;;25.05;36.36;101826.88;5348760;27;20030;-74
2022/04/26 10:44:59;;;;;;;5.07;2.90;;;;;;;24.83;32.58;101829.88;5360283;27;20015;-74
2022/04/26 10:47:30;;;;;;;4.18;2.45;;;;;;;24.08;33.00;101826.56;5345034;27;20427;-74
2022/04/26 10:50:05;;;;;;;4.25;2.67;;;;;;;23.72;34.30;101839.47;5345941;27;20027;-74
2022/04/26 10:52:40;;;;;;;4.55;2.67;;;;;;;24.78;34.21;101837.03;5345702;27;20011;-74
2022/04/26 10:55:14;;;;;;;5.38;2.55;;;;;;;25.92;32.96;101842.88;5344919;27;20106;-74
2022/04/26 10:57:48;;;;;;;3.33;2.78;;;;;;;26.88;29.65;101838.91;5356316;27;20023;-74
2022/04/26 11:00:27;;;;;;;5.50;2.70;;;;;;;28.97;31.52;101838.31;5345800;27;20027;-74
2022/04/26 11:03:01;;;;;;;5.13;2.70;;;;;;;28.66;29.37;101834.88;5344305;27;20157;-74
2022/04/26 11:05:34;;;;;;;5.45;2.60;;;;;;;27.40;30.10;101843.97;5348978;27;20028;-74
2022/04/26 11:08:05;;;;;;;3.03;2.60;;;;;;;25.98;32.60;101836.53;5349570;27;20012;-74
2022/04/26 11:13:33;;;;;;;4.72;2.65;;;;;;;26.58;29.69;101827.84;5370027;27;20024;-74
2022/04/26 11:16:07;;;;;;;5.07;2.92;;;;;;;27.19;33.04;101828.00;5350898;27;20036;-74
2022/04/26 11:18:42;;;;;;;4.18;3.53;;;;;;;27.43;33.19;101835.31;5349979;27;20150;-74
2022/04/26 11:21:14;;;;;;;4.50;3.10;;;;;;;28.28;31.52;101830.72;5348650;27;20049;-74
2022/04/26 11:29:42;;;;;;;4.20;3.22;;;;;;;29.25;26.93;101823.81;5349444;27;20031;-74
2022/04/26 11:32:28;;;;;;;;;;;;;;;32.32;27.04;101836.66;5349386;27;20021;-74
2022/04/26 11:35:03;;;;;;;3.75;3.08;;;;;;;29.47;30.35;101834.13;5354753;27;20244;-74
2022/04/26 11:37:48;;;;;;;4.70;2.72;;;;;;;30.14;26.03;101838.94;5367021;27;20035;-74
2022/04/26 11:40:27;;;;;;;5.70;3.03;;;;;;;30.57;26.67;101836.59;5370355;27;20020;-74
2022/04/26 11:43:05;;;;;;;5.85;2.88;;;;;;;29.96;30.03;101838.09;5369970;27;20463;-74
2022/04/26 11:45:37;;;;;;;4.20;2.88;;;;;;;29.61;26.16;101832.75;5356731;27;20432;-74
2022/04/26 11:48:13;;;;;;;4.10;2.80;;;;;;;29.66;25.16;101840.25;5338688;27;20099;-74
2022/04/26 11:50:47;;;;;;;6.15;3.42;;;;;;;30.01;27.87;101847.50;5370442;27;20032;-74
2022/04/26 11:53:24;;;;;;;4.43;3.40;;;;;;;29.67;29.57;101842.78;5370689;27;20065;-74
2022/04/26 11:55:57;;;;;;;3.30;3.00;;;;;;;29.65;25.32;101838.63;5360555;27;20016;-74
2022/04/26 11:58:28;;;;;;;5.70;3.15;;;;;;;30.39;23.58;101844.03;5347841;27;20039;-74
2022/04/26 12:01:15;;;;;;;5.13;3.37;;;;;;;30.98;25.15;101850.94;5347248;27;20439;-74
2022/04/26 12:03:49;;;;;;;5.03;2.80;;;;;;;30.58;22.88;101841.03;5347995;27;20019;-74
2022/04/26 12:06:32;;;;;;;4.70;3.05;;;;;;;31.31;26.47;101849.16;5347496;27;20388;-74
2022/04/26 12:09:05;;;;;;;5.75;3.30;;;;;;;30.09;23.47;101847.94;5346370;27;20027;-74
2022/04/26 12:11:38;;;;;;;4.65;3.10;;;;;;;29.83;25.44;101854.09;5348220;27;20016;-74
2022/04/26 12:14:17;;;;;;;4.55;3.10;;;;;;;29.44;24.82;101854.72;5347617;27;20368;-74
2022/04/26 12:16:55;;;;;;;4.13;2.60;;;;;;;31.36;24.03;101854.72;5366965;27;20023;-74
2022/04/26 12:19:37;;;;;;;3.35;2.40;;;;;;;31.20;24.01;101849.03;5369224;27;20027;-75
2022/04/26 12:22:08;;;;;;;6.10;2.88;;;;;;;31.76;21.39;101843.31;5369826;27;20475;-75
2022/04/26 12:24:47;;;;;;;3.80;2.88;;;;;;;32.93;20.97;101848.09;5369329;27;20026;-75
2022/04/26 12:27:25;;;;;;;3.50;2.60;;;;;;;31.72;23.98;101844.94;5347060;27;20046;-75
2022/04/26 12:29:57;;;;;;;8.77;2.95;;;;;;;31.09;23.76;101839.81;5347476;27;20015;-75
2022/04/26 12:32:29;;;;;;;3.83;2.37;;;;;;;30.46;23.26;101844.69;5347681;27;20081;-75
2022/04/26 12:35:03;;;;;;;5.95;2.50;;;;;;;28.42;22.64;101842.25;5365013;27;20261;-75
2022/04/26 12:37:34;;;;;;;3.80;2.42;;;;;;;27.38;27.65;101845.28;5349821;27;20024;-75
2022/04/26 12:40:11;;;;;;;3.95;2.75;;;;;;;26.65;25.83;101847.78;5346829;27;20019;-74
2022/04/26 12:42:44;;;;;;;5.45;2.90;;;;;;;25.76;30.07;101838.75;5347671;27;20053;-74
2022/04/26 12:45:21;;;;;;;8.48;2.83;;;;;;;25.93;27.78;101848.09;5358176;27;20020;-74
2022/04/26 12:51:21;;;;;;;4.50;2.70;;;;;;;25.41;31.95;101850.09;5356904;27;20106;-74
2022/04/26 12:53:52;;;;;;;4.32;3.40;;;;;;;24.29;33.97;101848.16;5347712;27;20111;-74
2022/04/26 12:56:25;;;;;;;5.82;3.45;;;;;;;23.92;31.41;101836.81;5340898;27;20465;-74
2022/04/26 12:58:57;;;;;;;8.35;3.22;;;;;;;24.60;34.14;101845.88;5346275;27;20027;-74
2022/04/26 13:01:29;;;;;;;5.20;3.22;;;;;;;24.56;30.07;101836.44;5346424;27;20035;-74
2022/04/26 13:04:00;;;;;;;5.95;3.70;;;;;;;23.97;30.97;101839.75;5349225;27;20492;-74
2022/04/26 13:06:31;;;;;;;6.20;3.50;;;;;;;23.52;33.24;101850.28;5347652;27;20063;-74
2022/04/26 13:09:03;;;;;;;10.07;3.67;;;;;;;23.25;32.20;101845.78;5347445;27;20027;-74
2022/04/26 13:11:36;;;;;;;5.95;3.10;;;;;;;22.53;33.54;101850.53;5347346;27;20024;-74
2022/04/26 13:14:08;;;;;;;8.55;3.58;;;;;;;22.78;36.65;101848.22;5349524;27;20092;-74
2022/04/26 13:16:39;;;;;;;5.63;3.97;;;;;;;22.83;34.25;101843.03;5356243;27;20043;-74
2022/04/26 13:19:10;;;;;;;4.88;3.40;;;;;;;23.72;32.80;101842.19;5368072;27;20019;-74
2022/04/26 13:21:41;;;;;;;6.72;3.20;;;;;;;25.05;33.94;101841.38;5347576;27;20046;-74
2022/04/26 13:24:15;;;;;;;5.55;3.22;;;;;;;26.40;31.48;101839.56;5368657;27;20027;-74
2022/04/26 13:26:46;;;;;;;4.72;3.22;;;;;;;27.29;28.31;101845.59;5366324;27;20039;-74
2022/04/26 13:29:17;;;;;;;3.85;3.28;;;;;;;28.14;26.42;101842.94;5368562;27;20034;-75
2022/04/26 13:31:49;;;;;;;4.43;3.03;;;;;;;27.77;26.56;101843.06;5368383;27;20027;-74
2022/04/26 13:34:21;;;;;;;4.47;2.97;;;;;;;28.32;31.56;101842.03;5367522;27;20495;-75
2022/04/26 13:36:52;;;;;;;6.25;3.63;;;;;;;28.20;27.92;101834.63;5368976;27;20507;-75
2022/04/26 13:39:23;;;;;;;5.45;3.10;;;;;;;27.08;29.83;101846.88;5368240;27;20547;-75
2022/04/26 13:41:55;;;;;;;5.75;2.95;;;;;;;24.36;30.27;101845.44;5368017;27;20011;-74
2022/04/26 13:44:26;;;;;;;6.50;3.15;;;;;;;22.39;35.82;101844.19;5365697;27;20087;-75
2022/04/26 13:46:58;;;;;;;5.85;3.30;;;;;;;21.91;34.45;101839.31;5352531;27;20428;-75
2022/04/26 13:49:31;;;;;;;8.27;3.38;;;;;;;21.71;34.41;101849.97;5367735;27;20045;-75
2022/04/26 13:52:07;;;;;;;6.95;3.17;;;;;;;20.48;36.36;101856.78;5368446;27;20122;-75
2022/04/26 13:54:38;;;;;;;6.03;3.10;;;;;;;20.45;37.12;101857.97;5368205;27;20030;-75
2022/04/26 13:57:10;;;;;;;5.60;3.20;;;;;;;20.38;36.91;101848.91;5348048;27;20019;-75
2022/04/26 13:59:43;;;;;;;11.38;3.75;;;;;;;20.04;40.06;101850.22;5345458;27;20030;-75
2022/04/26 14:02:14;;;;;;;5.07;3.35;;;;;;;20.14;40.84;101852.66;5357630;27;20027;-75
2022/04/26 14:04:49;;;;;;;5.63;3.22;;;;;;;19.82;43.91;101854.56;5367723;27;20411;-75
2022/04/26 14:07:20;;;;;;;5.40;3.25;;;;;;;19.51;41.27;101855.38;5366182;27;20028;-75
2022/04/26 14:09:51;;;;;;;4.53;3.00;;;;;;;18.85;41.23;101863.75;5366634;27;20023;-75
2022/04/26 14:12:22;;;;;;;6.03;2.97;;;;;;;18.64;46.54;101861.56;5367449;27;20043;-75
2022/04/26 14:23:23;;;;;;;5.65;3.03;;;;;;;17.60;48.84;101860.28;5345953;27;20039;-75
2022/04/26 14:25:54;;;;;;;5.60;2.78;;;;;;;17.57;45.65;101858.75;5348286;27;20074;-75
2022/04/26 14:28:26;;;;;;;5.18;2.83;;;;;;;17.48;47.52;101859.72;5362381;27;20019;-75
2022/04/26 14:30:57;;;;;;;6.68;3.05;;;;;;;17.30;44.47;101864.34;5346300;27;20507;-75
2022/04/26 14:33:28;;;;;;;3.17;2.40;;;;;;;17.28;49.99;101861.81;5345161;27;21756;-75
2022/04/26 14:36:01;;;;;;;4.80;2.85;;;;;;;17.38;55.41;101859.84;5344260;27;20031;-76
2022/04/26 14:38:32;;;;;;;6.38;3.20;;;;;;;17.11;61.15;101862.75;5348507;27;20028;-75
2022/04/26 14:41:03;;;;;;;4.30;3.22;;;;;;;17.11;60.67;101865.44;5354632;27;20035;-75
2022/04/26 14:43:36;;;;;;;6.72;3.58;;;;;;;16.91;57.42;101862.97;5371763;27;20026;-75
2022/04/26 14:46:07;;;;;;;3.75;2.97;;;;;;;17.09;56.12;101870.16;5352638;27;20035;-75
2022/04/26 14:48:38;;;;;;;6.20;3.42;;;;;;;16.99;60.25;101860.34;5347624;27;20410;-75
2022/04/26 14:51:11;;;;;;;3.90;2.33;;;;;;;16.81;54.13;101863.06;5349637;27;20418;-75
2022/04/26 14:53:42;;;;;;;4.32;3.20;;;;;;;16.76;50.75;101865.41;5360089;27;20046;-75
2022/04/26 14:56:13;;;;;;;3.72;2.72;;;;;;;16.61;54.88;101867.81;5364656;27;20028;-75
2022/04/26 14:58:44;;;;;;;4.72;3.10;;;;;;;16.50;60.06;101869.94;5348333;27;20031;-75
2022/04/26 15:01:16;;;;;;;5.15;3.67;;;;;;;16.43;75.32;101875.09;5382767;27;20047;-75
2022/04/26 15:03:48;;;;;;;3.72;2.60;;;;;;;16.28;55.43;101871.25;5349752;27;20027;-75
2022/04/26 15:06:19;;;;;;;5.75;2.80;;;;;;;16.20;57.76;101872.88;5348992;27;20038;-75
2022/04/26 15:11:43;;;;;;;4.88;3.10;;;;;;;16.44;75.86;101869.56;5370907;27;20031;-75
2022/04/26 15:17:04;;;;;;;4.03;3.05;;;;;;;16.78;64.11;101873.31;5359752;27;20028;-75
2022/04/26 15:19:35;;;;;;;5.85;3.20;;;;;;;16.97;60.84;101869.56;5353144;27;20046;-75
2022/04/26 15:22:06;;;;;;;6.00;3.20;;;;;;;17.00;61.16;101871.97;5369374;27;20023;-75
2022/04/26 15:24:38;;;;;;;4.70;2.70;;;;;;;16.65;50.47;101873.72;5371022;27;20614;-75
2022/04/26 15:27:09;;;;;;;4.60;2.60;;;;;;;16.54;47.67;101876.69;5369269;27;40644;-75
2022/04/26 15:29:40;;;;;;;5.00;2.50;;;;;;;16.34;59.07;101874.19;5365083;27;20020;-75
2022/04/26 15:32:12;;;;;;;5.38;2.58;;;;;;;16.21;48.70;101873.72;5349628;27;20028;-75
2022/04/26 15:34:44;;;;;;;3.72;2.47;;;;;;;16.11;57.25;101870.25;5349595;27;20028;-75
2022/04/26 15:37:15;;;;;;;3.00;2.50;;;;;;;15.92;49.72;101863.16;5350121;27;20130;-75
2022/04/26 15:39:47;;;;;;;4.95;2.30;;;;;;;15.81;50.67;101872.31;5347756;27;20023;-75
2022/04/26 15:42:19;;;;;;;3.30;2.25;;;;;;;15.69;49.35;101871.66;5381793;27;20019;-75
2022/04/26 15:44:51;;;;;;;5.40;2.50;;;;;;;15.75;69.38;101884.53;5348796;27;20385;-75
2022/04/26 15:47:22;;;;;;;7.38;2.10;;;;;;;15.48;49.97;101888.88;5382312;27;20492;-75
2022/04/26 15:49:54;;;;;;;2.38;1.88;;;;;;;15.41;51.30;101885.09;5347578;27;20143;-75
2022/04/26 15:52:25;;;;;;;3.08;2.53;;;;;;;15.23;55.92;101876.97;5348862;27;20026;-75
2022/04/26 15:54:57;;;;;;;3.00;2.38;;;;;;;15.07;65.25;101882.97;5347392;27;20012;-75
2022/04/26 15:57:29;;;;;;;3.20;2.28;;;;;;;14.99;50.28;101880.19;5348519;27;20473;-75